• Join FlightAware (Why Join?)
  • Login
  • US Flag 
Gobble Gobble! 
05:49AM EST


 

Airport Tracker/Info


-or-


 

Live Flight TrackerFlight Track Log ✈ USC110 ✈ 26-Jul-2013 ✈ KBKL - KYIP

Flight Track Log - Related Links

Times and Time Zones

All times are in EDT time to prevent confusion due to time zone crossing. See the USC110 flight status page for this flight to view local times or setup timezone preferences in your user account.

Time Position Orientation Groundspeed Altitude Reporting Facility
EDT Latitude Longitude Course Direction KTS MPH feet Rate Location/Type
10:56PM 41.5544 -81.6681 355° North 131 151 1,900  Level Cleveland Center
10:57PM 41.5792 -81.7044 346° North 124 143 3,100 1,020 Climbing Cleveland Center
10:58PM 41.5975 -81.7547 296° West 134 154 4,100 840 Climbing Cleveland Center
10:59PM 41.6136 -81.7997 296° West 134 154 5,000 840 Climbing Cleveland Center
11:00PM 41.6300 -81.8444 296° West 134 154 5,900 480 Climbing Cleveland Center
11:01PM 41.6522 -81.8919 302° West 165 190 6,000  Climbing Cleveland Center
11:02PM 41.6725 -81.9536 294° West 164 189 6,000 -60 Level Cleveland Center
11:03PM 41.6928 -82.0042 298° West 162 186 5,900 -60 Descending Cleveland Center
11:04PM 41.7150 -82.0575 299° West 163 188 5,900  Level Cleveland Center
11:05PM 41.7308 -82.1106 292° West 159 183 5,900  Level Cleveland Center
11:06PM 41.7508 -82.1667 296° West 163 188 5,900  Level Cleveland Center
11:07PM 41.7672 -82.2006 303° West 163 188 5,900 -120 Level Cleveland Center
11:07PM 41.7772 -82.2342 292° West 163 188 5,800 -60 Descending Cleveland Center
11:08PM 41.7992 -82.2933 296° West 162 186 5,800  Level Cleveland Center
11:09PM 41.8211 -82.3525 296° West 162 186 5,800  Level Cleveland Center
11:10PM 41.8392 -82.4031 296° West 161 185 5,800  Level Cleveland Center
11:11PM 41.8592 -82.4567 297° West 159 183 5,900  Climbing Cleveland Center
11:12PM 41.8769 -82.5103 294° West 159 183 5,900  Level Cleveland Center
11:13PM 41.8969 -82.5639 297° West 159 183 5,900  Level Cleveland Center
11:14PM 41.9169 -82.6119 299° West 158 182 5,900  Level Cleveland Center
11:15PM 41.9347 -82.6656 294° West 158 182 5,900  Level Cleveland Center
11:16PM 41.9547 -82.7192 297° West 158 182 5,900  Level Cleveland Center
11:17PM 41.9703 -82.7728 291° West 160 184 5,900  Level Cleveland Center
11:18PM 42.0028 -82.8214 312° West 175 201 5,900  Level Cleveland Center
11:19PM 42.0436 -82.8592 326° Northwest 170 196 5,900  Level Cleveland Center
11:20PM 42.0783 -82.9022 317° Northwest 168 193 5,900  Level Cleveland Center
11:21PM 42.1150 -82.9400 323° Northwest 166 191 5,900  Level Cleveland Center
11:22PM 42.1389 -82.9914 302° West 160 184 5,900  Level Cleveland Center
11:24PM 42.1669 -83.0483 304° West 158 182 5,900 -60 Level Cleveland Center
11:25PM 42.1825 -83.1022 291° West 157 181 5,800 -300 Descending Cleveland Center
11:26PM 42.2019 -83.1592 295° West 168 193 5,300 -480 Descending Cleveland Center
11:27PM 42.2236 -83.2189 296° West 173 199 4,900 -240 Descending Cleveland Center
11:28PM 42.2411 -83.2786 292° West 161 185 4,900 -180 Level Cleveland Center
11:29PM 42.2603 -83.3383 293° West 174 200 4,600 -540 Descending Cleveland Center
11:30PM 42.2800 -83.3953 295° West 166 191 3,900 -1,020 Descending Cleveland Center
11:31PM 42.2889 -83.4519 282° West 175 201 2,600 -1,320 Descending Cleveland Center
11:32PM 42.2606 -83.5039 234° Southwest 163 188 1,300 -1,320 Descending Cleveland Center